createdAt,value
2023-04-21T00:02:00.803Z,2.10
2023-04-21T00:04:29.177Z,1.90
2023-04-21T00:06:57.222Z,2.15
2023-04-21T00:09:26.541Z,1.92
2023-04-21T00:11:54.662Z,1.90
2023-04-21T00:14:22.488Z,1.70
2023-04-21T00:16:52.607Z,1.67
2023-04-21T00:19:21.073Z,1.42
2023-04-21T00:21:49.208Z,1.33
2023-04-21T00:24:17.256Z,1.60
2023-04-21T00:26:47.057Z,1.85
2023-04-21T00:29:15.155Z,1.45
2023-04-21T00:31:43.100Z,2.00
2023-04-21T00:34:11.604Z,2.03
2023-04-21T00:36:39.447Z,2.03
2023-04-21T00:39:07.398Z,1.83
2023-04-21T00:41:36.238Z,1.90
2023-04-21T00:44:07.601Z,1.55
2023-04-21T00:46:36.043Z,1.85
2023-04-21T00:49:06.210Z,1.42
2023-04-21T00:51:34.944Z,1.60
2023-04-21T00:54:05.313Z,1.95
2023-04-21T00:56:34.881Z,1.70
2023-04-21T00:59:03.789Z,1.23
2023-04-21T01:01:34.329Z,1.40
2023-04-21T01:04:02.879Z,1.58
2023-04-21T01:06:32.322Z,1.48
2023-04-21T01:09:00.204Z,1.73
2023-04-21T01:11:28.120Z,1.48
2023-04-21T01:13:56.105Z,1.98
2023-04-21T01:16:24.825Z,1.90
2023-04-21T01:18:54.533Z,1.67
2023-04-21T01:21:23.800Z,1.80
2023-04-21T01:23:53.129Z,2.00
2023-04-21T01:26:21.675Z,1.53
2023-04-21T01:28:50.557Z,1.35
2023-04-21T01:31:18.570Z,1.40
2023-04-21T01:33:46.876Z,1.67
2023-04-21T01:36:14.812Z,1.95
2023-04-21T01:38:43.444Z,1.67
2023-04-21T01:41:13.019Z,1.10
2023-04-21T01:43:40.935Z,1.90
2023-04-21T01:46:09.121Z,1.70
2023-04-21T01:48:38.136Z,1.67
2023-04-21T01:51:06.231Z,1.75
2023-04-21T01:53:34.088Z,1.70
2023-04-21T01:56:01.959Z,2.30
2023-04-21T01:58:31.335Z,2.05
2023-04-21T02:00:59.365Z,2.28
2023-04-21T02:03:27.538Z,1.90
2023-04-21T02:05:55.480Z,1.55
2023-04-21T02:08:23.361Z,3.15
2023-04-21T02:10:51.193Z,2.10
2023-04-21T02:13:19.094Z,1.50
2023-04-21T02:15:48.462Z,1.77
2023-04-21T02:18:16.887Z,1.70
2023-04-21T02:20:44.972Z,1.92
2023-04-21T02:23:12.917Z,1.33
2023-04-21T02:25:40.789Z,2.22
2023-04-21T02:28:09.008Z,1.88
2023-04-21T02:30:37.082Z,1.73
2023-04-21T02:33:07.718Z,1.27
2023-04-21T02:35:35.738Z,2.42
2023-04-21T02:38:07.320Z,1.80
2023-04-21T02:40:35.332Z,1.83
2023-04-21T02:43:03.964Z,2.03
2023-04-21T02:45:32.190Z,2.00
2023-04-21T02:48:02.784Z,1.83
2023-04-21T02:50:32.116Z,1.88
2023-04-21T02:53:00.000Z,2.60
2023-04-21T02:55:27.809Z,1.90
2023-04-21T02:57:55.886Z,1.58
2023-04-21T03:00:23.974Z,1.70
2023-04-21T03:02:53.375Z,1.95
2023-04-21T03:05:21.728Z,1.67
2023-04-21T03:07:50.972Z,2.25
2023-04-21T03:10:19.546Z,1.97
2023-04-21T03:12:47.460Z,1.92
2023-04-21T03:15:16.942Z,1.90
2023-04-21T03:17:44.971Z,2.20
2023-04-21T03:20:13.433Z,1.92
2023-04-21T03:22:41.443Z,2.08
2023-04-21T03:25:11.999Z,2.10
2023-04-21T03:27:39.966Z,2.15
2023-04-21T03:30:09.212Z,1.73
2023-04-21T03:32:37.210Z,1.77
2023-04-21T03:35:08.346Z,2.05
2023-04-21T03:37:36.265Z,2.28
2023-04-21T03:40:07.261Z,1.95
2023-04-21T03:42:36.794Z,1.85
2023-04-21T03:45:04.916Z,2.78
2023-04-21T03:47:32.875Z,2.40
2023-04-21T03:50:00.996Z,2.38
2023-04-21T03:52:28.975Z,2.45
2023-04-21T03:54:56.783Z,1.75
2023-04-21T03:57:24.736Z,1.83
2023-04-21T03:59:54.036Z,1.95
2023-04-21T04:02:22.172Z,1.67
2023-04-21T04:04:50.632Z,2.30
2023-04-21T04:07:18.831Z,2.35
2023-04-21T04:09:46.767Z,2.40
2023-04-21T04:12:14.646Z,2.08
2023-04-21T04:14:45.528Z,2.30
2023-04-21T04:17:14.900Z,2.20
2023-04-21T04:19:42.917Z,2.00
2023-04-21T04:22:10.941Z,2.20
2023-04-21T04:24:38.869Z,3.15
2023-04-21T04:27:07.096Z,2.00
2023-04-21T04:29:34.988Z,2.53
2023-04-21T04:32:04.260Z,2.60
2023-04-21T04:34:37.533Z,2.28
2023-04-21T04:37:06.823Z,2.45
2023-04-21T04:39:34.785Z,2.55
2023-04-21T04:42:03.682Z,2.15
2023-04-21T04:44:31.972Z,2.63
2023-04-21T04:47:00.012Z,2.20
2023-04-21T04:49:28.141Z,2.50
2023-04-21T04:51:57.498Z,2.40
2023-04-21T04:54:25.869Z,2.80
2023-04-21T04:56:53.700Z,3.20
2023-04-21T04:59:21.592Z,3.30
2023-04-21T05:01:49.517Z,4.22
2023-04-21T05:04:17.806Z,4.35
2023-04-21T05:06:45.970Z,4.30
2023-04-21T05:09:15.850Z,5.40
2023-04-21T05:11:43.841Z,4.53
2023-04-21T05:14:11.715Z,5.90
2023-04-21T05:16:39.925Z,5.70
2023-04-21T05:19:07.802Z,5.22
2023-04-21T05:21:35.816Z,5.28
2023-04-21T05:24:03.809Z,5.30
2023-04-21T05:26:33.126Z,5.32
2023-04-21T05:29:01.017Z,5.50
2023-04-21T05:31:29.104Z,5.07
2023-04-21T05:33:57.029Z,5.57
2023-04-21T05:36:25.920Z,5.72
2023-04-21T05:38:55.068Z,5.93
2023-04-21T05:41:23.137Z,5.57
2023-04-21T05:43:52.423Z,5.00
2023-04-21T05:46:20.604Z,4.90
2023-04-21T05:48:48.775Z,5.90
2023-04-21T05:51:16.783Z,6.05
2023-04-21T05:53:46.122Z,6.25
2023-04-21T05:56:14.943Z,6.50
2023-04-21T05:58:42.896Z,5.80
2023-04-21T06:01:13.046Z,5.60
2023-04-21T06:03:41.100Z,5.03
2023-04-21T06:06:10.327Z,4.78
2023-04-21T06:08:38.344Z,5.63
2023-04-21T06:11:06.271Z,5.60
2023-04-21T06:13:35.064Z,4.22
2023-04-21T06:16:04.380Z,4.95
2023-04-21T06:18:33.629Z,4.68
2023-04-21T06:21:01.550Z,5.05
2023-04-21T06:23:29.469Z,5.40
2023-04-21T06:26:04.222Z,4.47
2023-04-21T06:28:32.696Z,5.18
2023-04-21T06:31:01.127Z,4.63
2023-04-21T06:33:29.822Z,5.68
2023-04-21T06:35:59.126Z,4.15
2023-04-21T06:38:27.059Z,4.32
2023-04-21T06:40:55.286Z,4.85
2023-04-21T06:43:23.179Z,4.03
2023-04-21T06:45:51.251Z,4.45
2023-04-21T06:48:19.149Z,3.80
2023-04-21T06:50:47.039Z,4.50
2023-04-21T06:53:18.096Z,3.30
2023-04-21T06:55:46.352Z,3.58
2023-04-21T06:58:14.278Z,2.40
2023-04-21T07:00:42.556Z,2.33
2023-04-21T07:03:11.027Z,3.25
2023-04-21T07:05:39.081Z,2.05
2023-04-21T07:08:07.026Z,2.15
2023-04-21T07:10:36.439Z,2.70
2023-04-21T07:13:10.496Z,2.20
2023-04-21T07:15:38.512Z,2.00
2023-04-21T07:18:06.618Z,3.40
2023-04-21T07:20:34.619Z,1.65
2023-04-21T07:23:02.543Z,1.48
2023-04-21T07:25:30.487Z,2.00
2023-04-21T07:27:59.866Z,1.98
2023-04-21T07:30:27.844Z,1.70
2023-04-21T07:32:56.093Z,1.58
2023-04-21T07:35:24.082Z,2.05
2023-04-21T07:37:51.972Z,1.83
2023-04-21T07:40:19.885Z,1.48
2023-04-21T07:42:47.891Z,2.22
2023-04-21T07:45:20.213Z,1.90
2023-04-21T07:47:48.307Z,1.60
2023-04-21T07:50:16.252Z,1.88
2023-04-21T07:52:46.214Z,3.15
2023-04-21T07:55:14.051Z,2.15
2023-04-21T07:57:41.922Z,1.70
2023-04-21T08:00:10.950Z,1.83
2023-04-21T08:02:40.443Z,1.40
2023-04-21T08:05:09.337Z,1.70
2023-04-21T08:07:37.569Z,1.83
2023-04-21T08:10:06.050Z,2.30
2023-04-21T08:12:34.090Z,1.95
2023-04-21T08:15:05.848Z,2.00
2023-04-21T08:17:34.000Z,1.83
2023-04-21T08:20:03.779Z,2.72
2023-04-21T08:22:31.713Z,1.60
2023-04-21T08:24:59.657Z,2.03
2023-04-21T08:27:27.608Z,1.50
2023-04-21T08:29:55.776Z,1.80
2023-04-21T08:32:24.664Z,1.38
2023-04-21T08:34:53.758Z,1.90
2023-04-21T08:37:23.679Z,2.10
2023-04-21T08:39:51.935Z,1.40
2023-04-21T08:42:19.909Z,1.88
2023-04-21T08:44:48.127Z,1.60
2023-04-21T08:47:16.655Z,1.80
2023-04-21T08:49:45.630Z,1.33
2023-04-21T08:52:14.112Z,1.23
2023-04-21T08:54:44.202Z,0.98
2023-04-21T08:57:15.647Z,1.60
2023-04-21T08:59:43.946Z,1.20
2023-04-21T09:02:15.133Z,1.20
2023-04-21T09:04:44.963Z,1.85
2023-04-21T09:07:13.814Z,1.08
2023-04-21T09:09:58.502Z,1.20
2023-04-21T09:12:26.763Z,1.23
2023-04-21T09:14:54.994Z,1.33
2023-04-21T09:17:28.745Z,0.80
2023-04-21T09:19:56.745Z,0.93
2023-04-21T09:22:29.293Z,1.15
2023-04-21T09:25:00.791Z,1.50
2023-04-21T09:27:29.801Z,0.90
2023-04-21T09:30:03.993Z,1.00
2023-04-21T09:32:38.414Z,1.40
2023-04-21T09:35:07.549Z,1.00
2023-04-21T09:37:35.510Z,1.30
2023-04-21T09:40:05.784Z,1.38
2023-04-21T09:42:39.134Z,1.38
2023-04-21T09:45:29.065Z,1.33
2023-04-21T09:48:00.545Z,1.27
2023-04-21T09:53:20.684Z,1.33
2023-04-21T09:55:53.645Z,1.10
2023-04-21T09:58:25.236Z,1.00
2023-04-21T10:00:54.784Z,1.15
2023-04-21T10:03:28.337Z,1.00
2023-04-21T10:05:57.154Z,0.75
2023-04-21T10:08:25.114Z,1.15
2023-04-21T10:10:54.607Z,0.82
2023-04-21T10:13:23.577Z,0.87
2023-04-21T10:16:03.709Z,0.68
2023-04-21T10:18:31.899Z,0.82
2023-04-21T10:21:03.611Z,0.80
2023-04-21T10:23:33.580Z,1.20
2023-04-21T10:26:12.143Z,0.88
2023-04-21T10:28:48.354Z,0.90
2023-04-21T10:31:21.406Z,0.70
2023-04-21T10:34:18.603Z,1.45
2023-04-21T10:37:17.581Z,1.55
2023-04-21T10:39:54.872Z,1.25
2023-04-21T10:42:28.784Z,0.70
2023-04-21T10:45:17.660Z,1.40
2023-04-21T10:47:49.334Z,1.10
2023-04-21T10:50:23.259Z,0.70
2023-04-21T10:52:56.936Z,0.80
2023-04-21T10:55:29.182Z,0.80
2023-04-21T10:57:59.360Z,0.80
2023-04-21T11:00:27.386Z,0.93
2023-04-21T11:03:00.215Z,1.70
2023-04-21T11:05:34.574Z,1.13
2023-04-21T11:08:11.981Z,1.13
2023-04-21T11:10:47.181Z,0.88
2023-04-21T11:13:16.466Z,0.77
2023-04-21T11:15:57.512Z,0.90
2023-04-21T11:18:40.114Z,1.10
2023-04-21T11:21:09.809Z,1.73
2023-04-21T11:23:41.461Z,1.10
2023-04-21T11:26:09.684Z,0.70
2023-04-21T11:28:41.683Z,0.90
2023-04-21T11:31:09.802Z,0.75
2023-04-21T11:33:38.198Z,0.60
2023-04-21T11:36:07.524Z,1.27
2023-04-21T11:38:40.592Z,1.00
2023-04-21T11:41:09.529Z,1.65
2023-04-21T11:43:39.583Z,1.10
2023-04-21T11:46:29.110Z,1.10
2023-04-21T11:49:00.983Z,1.15
2023-04-21T11:51:34.307Z,1.08
2023-04-21T11:54:02.526Z,1.20
2023-04-21T11:56:30.535Z,1.08
2023-04-21T11:58:59.743Z,0.70
2023-04-21T12:01:28.183Z,1.40
2023-04-21T12:03:57.099Z,1.10
2023-04-21T12:06:27.120Z,1.00
2023-04-21T12:09:01.136Z,0.93
2023-04-21T12:11:29.736Z,1.00
2023-04-21T12:13:59.700Z,1.23
2023-04-21T12:16:28.510Z,1.10
2023-04-21T12:18:57.793Z,1.05
2023-04-21T12:21:29.050Z,0.88
2023-04-21T12:23:57.221Z,1.05
2023-04-21T12:26:25.420Z,0.90
2023-04-21T12:28:53.470Z,1.10
2023-04-21T12:31:23.052Z,0.70
2023-04-21T12:33:51.264Z,0.90
2023-04-21T12:36:19.262Z,0.93
2023-04-21T12:38:47.205Z,0.80
2023-04-21T12:41:15.143Z,1.33
2023-04-21T12:43:43.146Z,0.93
2023-04-21T12:46:11.146Z,1.00
2023-04-21T12:48:40.550Z,1.55
2023-04-21T12:51:08.554Z,0.93
2023-04-21T12:53:36.825Z,1.00
2023-04-21T12:56:05.751Z,1.05
2023-04-21T12:58:33.807Z,0.93
2023-04-21T13:01:01.749Z,1.05
2023-04-21T13:03:29.851Z,1.10
2023-04-21T13:05:59.712Z,0.88
2023-04-21T13:08:27.757Z,0.85
2023-04-21T13:10:55.935Z,1.17
2023-04-21T13:13:23.882Z,1.08
2023-04-21T13:15:51.847Z,1.20
2023-04-21T13:18:19.723Z,0.95
2023-04-21T13:20:47.666Z,0.80
2023-04-21T13:23:17.004Z,1.70
2023-04-21T13:25:45.820Z,0.82
2023-04-21T13:28:14.748Z,1.10
2023-04-21T13:30:42.872Z,0.93
2023-04-21T13:33:10.998Z,0.90
2023-04-21T13:35:39.054Z,0.93
2023-04-21T13:38:07.281Z,1.13
2023-04-21T13:40:36.708Z,1.33
2023-04-21T13:43:04.951Z,1.10
2023-04-21T13:45:32.961Z,1.20
2023-04-21T13:48:01.147Z,1.23
2023-04-21T13:50:29.302Z,1.95
2023-04-21T13:52:57.202Z,1.27
2023-04-21T13:55:25.210Z,1.02
2023-04-21T13:57:55.376Z,1.08
2023-04-21T14:00:23.579Z,1.07
2023-04-21T14:02:51.696Z,1.10
2023-04-21T14:05:20.404Z,0.90
2023-04-21T14:07:48.508Z,1.25
2023-04-21T14:10:16.504Z,0.70
2023-04-21T14:12:45.642Z,1.50
2023-04-21T14:15:15.136Z,1.13
2023-04-21T14:17:43.162Z,1.00
2023-04-21T14:20:12.791Z,1.10
2023-04-21T14:22:40.647Z,1.10
2023-04-21T14:25:09.246Z,1.45
2023-04-21T14:27:37.340Z,1.00
2023-04-21T14:30:06.143Z,0.90
2023-04-21T14:32:35.651Z,1.40
2023-04-21T14:35:04.933Z,1.67
2023-04-21T14:37:33.108Z,1.33
2023-04-21T14:40:01.685Z,1.42
2023-04-21T14:42:29.692Z,1.13
2023-04-21T14:44:57.735Z,2.10
2023-04-21T14:47:26.150Z,1.67
2023-04-21T14:49:56.012Z,1.13
2023-04-21T14:52:25.855Z,1.23
2023-04-21T14:54:54.081Z,0.77
2023-04-21T14:57:23.719Z,0.70
2023-04-21T14:59:52.543Z,1.40
2023-04-21T15:02:21.970Z,1.15
2023-04-21T15:04:50.806Z,0.65
2023-04-21T15:07:24.323Z,0.60
2023-04-21T15:09:53.516Z,1.13
2023-04-21T15:12:21.969Z,1.05
2023-04-21T15:14:49.853Z,1.02
2023-04-21T15:17:17.737Z,1.10
2023-04-21T15:19:45.663Z,1.33
2023-04-21T15:22:15.431Z,0.98
2023-04-21T15:24:44.782Z,0.90
2023-04-21T15:27:12.707Z,0.88
2023-04-21T15:29:41.014Z,1.33
2023-04-21T15:32:09.021Z,1.05
2023-04-21T15:34:37.291Z,1.08
2023-04-21T15:37:05.420Z,0.80
2023-04-21T15:39:33.403Z,1.00
2023-04-21T15:42:04.367Z,0.65
2023-04-21T15:44:34.010Z,1.23
2023-04-21T15:47:02.287Z,0.95
2023-04-21T15:49:30.739Z,1.10
2023-04-21T15:51:58.860Z,1.00
2023-04-21T15:54:26.732Z,0.82
2023-04-21T15:56:54.702Z,0.90
2023-04-21T15:59:25.890Z,0.70
2023-04-21T16:01:54.273Z,0.88
2023-04-21T16:04:22.555Z,1.45
2023-04-21T16:06:50.745Z,0.60
2023-04-21T16:09:21.120Z,0.85
2023-04-21T16:14:18.922Z,1.00
2023-04-21T16:16:48.311Z,0.90
2023-04-21T16:19:16.671Z,1.02
2023-04-21T16:21:44.625Z,0.70
2023-04-21T16:24:12.715Z,1.30
2023-04-21T16:26:41.397Z,1.63
2023-04-21T16:29:09.368Z,0.60
2023-04-21T16:31:37.774Z,0.95
2023-04-21T16:34:07.229Z,0.90
2023-04-21T16:36:35.447Z,0.95
2023-04-21T16:39:03.334Z,0.90
2023-04-21T16:41:31.433Z,0.90
2023-04-21T16:43:59.455Z,0.90
2023-04-21T16:46:29.737Z,2.00
2023-04-21T16:48:57.817Z,1.63
2023-04-21T16:51:28.560Z,1.80
2023-04-21T16:53:56.738Z,1.20
2023-04-21T16:56:24.929Z,1.33
2023-04-21T16:58:53.136Z,0.93
2023-04-21T17:01:21.191Z,0.75
2023-04-21T17:03:49.316Z,1.17
2023-04-21T17:06:21.003Z,1.10
2023-04-21T17:08:50.507Z,0.93
2023-04-21T17:11:18.536Z,0.98
2023-04-21T17:13:46.373Z,1.08
2023-04-21T17:16:14.408Z,1.17
2023-04-21T17:18:42.447Z,1.00
2023-04-21T17:21:10.351Z,1.00
2023-04-21T17:23:38.284Z,0.90
2023-04-21T17:26:08.193Z,1.10
2023-04-21T17:28:37.067Z,0.60
2023-04-21T17:31:15.248Z,1.00
2023-04-21T17:33:44.509Z,1.00
2023-04-21T17:36:12.551Z,1.30
2023-04-21T17:38:42.647Z,1.27
2023-04-21T17:41:12.050Z,1.75
2023-04-21T17:43:40.050Z,1.20
2023-04-21T17:46:08.544Z,1.50
2023-04-21T17:48:36.581Z,1.05
2023-04-21T17:51:04.769Z,1.50
2023-04-21T17:53:32.727Z,1.52
2023-04-21T17:56:01.131Z,1.17
2023-04-21T17:58:30.605Z,0.93
2023-04-21T18:00:58.576Z,0.93
2023-04-21T18:03:27.475Z,1.50
2023-04-21T18:05:55.624Z,1.40
2023-04-21T18:08:23.694Z,0.90
2023-04-21T18:10:51.726Z,1.17
2023-04-21T18:13:19.656Z,0.85
2023-04-21T18:15:49.248Z,1.02
2023-04-21T18:18:17.237Z,0.90
2023-04-21T18:20:45.321Z,1.20
2023-04-21T18:23:13.300Z,2.70
2023-04-21T18:25:43.203Z,1.60
2023-04-21T18:28:12.799Z,1.50
2023-04-21T18:30:41.706Z,1.63
2023-04-21T18:33:11.530Z,1.52
2023-04-21T18:35:39.816Z,1.20
2023-04-21T18:38:10.525Z,1.20
2023-04-21T18:40:38.614Z,1.40
2023-04-21T18:43:07.270Z,1.38
2023-04-21T18:45:35.176Z,1.55
2023-04-21T18:48:03.362Z,1.33
2023-04-21T18:50:35.950Z,1.10
2023-04-21T18:53:05.232Z,1.35
2023-04-21T18:55:33.569Z,1.50
2023-04-21T18:58:01.462Z,1.60
2023-04-21T19:00:29.881Z,1.30
2023-04-21T19:02:58.110Z,1.90
2023-04-21T19:05:26.618Z,1.75
2023-04-21T19:07:56.990Z,1.30
2023-04-21T19:10:24.929Z,1.77
2023-04-21T19:12:52.878Z,1.30
2023-04-21T19:15:21.749Z,2.20
2023-04-21T19:20:26.369Z,3.38
2023-04-21T19:22:54.284Z,2.88
2023-04-21T19:25:22.278Z,3.15
2023-04-21T19:27:50.159Z,2.60
2023-04-21T19:30:18.096Z,2.88
2023-04-21T19:32:46.008Z,2.22
2023-04-21T19:35:14.176Z,1.83
2023-04-21T19:37:43.471Z,3.28
2023-04-21T19:40:11.914Z,2.03
2023-04-21T19:42:41.757Z,2.00
2023-04-21T19:45:13.134Z,2.83
2023-04-21T19:47:41.139Z,4.78
2023-04-21T19:50:10.915Z,2.83
2023-04-21T19:52:38.863Z,2.13
2023-04-21T19:55:08.964Z,2.45
2023-04-21T19:57:37.110Z,2.10
2023-04-21T20:00:08.559Z,1.83
2023-04-21T20:02:36.844Z,1.80
2023-04-21T20:05:07.419Z,1.67
2023-04-21T20:07:35.825Z,1.48
2023-04-21T20:10:04.184Z,1.33
2023-04-21T20:12:33.747Z,2.38
2023-04-21T20:15:02.239Z,1.87
2023-04-21T20:17:30.306Z,2.00
2023-04-21T20:19:58.935Z,2.50
2023-04-21T20:22:26.964Z,2.00
2023-04-21T20:24:57.941Z,2.20
2023-04-21T20:27:25.995Z,1.70
2023-04-21T20:29:55.445Z,1.95
2023-04-21T20:32:23.409Z,1.97
2023-04-21T20:34:51.844Z,2.00
2023-04-21T20:37:19.829Z,1.67
2023-04-21T20:39:47.816Z,1.63
2023-04-21T20:42:15.854Z,2.20
2023-04-21T20:44:43.781Z,1.65
2023-04-21T20:47:13.202Z,2.00
2023-04-21T20:49:42.516Z,2.03
2023-04-21T20:52:10.924Z,1.65
2023-04-21T20:54:38.908Z,1.80
2023-04-21T20:57:08.576Z,1.60
2023-04-21T20:59:36.849Z,1.05
2023-04-21T21:02:05.294Z,1.80
2023-04-21T21:04:34.823Z,1.90
2023-04-21T21:07:02.814Z,1.63
2023-04-21T21:09:31.730Z,1.80
2023-04-21T21:11:59.638Z,1.55
2023-04-21T21:14:27.516Z,1.90
2023-04-21T21:16:56.462Z,2.35
2023-04-21T21:19:24.560Z,1.70
2023-04-21T21:21:54.238Z,1.42
2023-04-21T21:24:22.148Z,1.60
2023-04-21T21:26:50.180Z,1.67
2023-04-21T21:29:18.062Z,1.92
2023-04-21T21:31:46.029Z,1.85
2023-04-21T21:34:13.905Z,1.58
2023-04-21T21:36:41.815Z,1.70
2023-04-21T21:39:11.529Z,2.13
2023-04-21T21:41:39.767Z,2.40
2023-04-21T21:44:07.782Z,1.80
2023-04-21T21:46:35.785Z,1.50
2023-04-21T21:49:03.830Z,1.80
2023-04-21T21:51:31.786Z,2.13
2023-04-21T21:54:02.119Z,2.63
2023-04-21T21:58:59.559Z,2.00
2023-04-21T22:01:27.605Z,2.22
2023-04-21T22:03:55.601Z,1.63
2023-04-21T22:06:26.475Z,2.10
2023-04-21T22:08:54.338Z,1.95
2023-04-21T22:11:22.873Z,1.95
2023-04-21T22:13:52.547Z,1.67
2023-04-21T22:16:20.504Z,1.63
2023-04-21T22:18:48.503Z,1.95
2023-04-21T22:21:16.772Z,1.52
2023-04-21T22:23:45.135Z,3.20
2023-04-21T22:26:13.160Z,1.42
2023-04-21T22:28:41.788Z,2.90
2023-04-21T22:31:11.561Z,1.60
2023-04-21T22:33:39.576Z,1.90
2023-04-21T22:36:09.883Z,1.83
2023-04-21T22:38:38.388Z,1.58
2023-04-21T22:41:06.734Z,1.70
2023-04-21T22:43:34.630Z,1.50
2023-04-21T22:46:03.236Z,2.33
2023-04-21T22:48:32.950Z,1.30
2023-04-21T22:51:01.490Z,1.77
2023-04-21T22:53:29.531Z,1.55
2023-04-21T22:55:57.545Z,1.50
2023-04-21T22:58:26.089Z,2.00
2023-04-21T23:00:54.123Z,2.15
2023-04-21T23:03:23.400Z,2.17
2023-04-21T23:05:53.084Z,2.80
2023-04-21T23:08:21.062Z,2.47
2023-04-21T23:10:49.041Z,2.22
2023-04-21T23:13:16.914Z,1.70
2023-04-21T23:15:44.818Z,1.98
2023-04-21T23:18:15.198Z,1.70
2023-04-21T23:23:12.223Z,1.98
2023-04-21T23:25:40.084Z,1.87
2023-04-21T23:28:08.115Z,1.70
2023-04-21T23:30:36.167Z,2.33
2023-04-21T23:33:04.265Z,2.13
2023-04-21T23:35:32.209Z,2.28
2023-04-21T23:38:00.149Z,2.17
2023-04-21T23:40:29.481Z,1.77
2023-04-21T23:42:57.354Z,2.50
2023-04-21T23:45:25.245Z,2.40
2023-04-21T23:47:53.176Z,2.40
2023-04-21T23:50:21.139Z,2.20
2023-04-21T23:52:49.149Z,2.03
2023-04-21T23:55:17.237Z,1.75
2023-04-21T23:57:47.123Z,1.80
